Time;durP1;ratioP1;P1;durP2;ratioP2;P2;SDS_P1;SDS_P2;PMS_P1;PMS_P2;Temp;Humidity;BMP_temperature;BMP_pressure;BME280_temperature;BME280_humidity;BME280_pressure;Samples;Min_cycle;Max_cycle;Signal;HPM_P1;HPM_P2
2022/01/23 00:02:29;;;;;;;;;;;;;;;-2.36;74.29;100237.69;5048479;28;19909;-81
2022/01/23 00:04:55;;;;;;;;;;;;;;;-2.11;73.97;100232.75;5037852;28;20019;-80
2022/01/23 00:07:20;;;;;;;;;;;;;;;-2.37;74.97;100237.63;5028543;28;20011;-81
2022/01/23 00:09:46;;;;;;;;;;;;;;;-2.22;74.65;100240.03;5035496;28;19982;-81
2022/01/23 00:12:16;;;;;;;;;;;;;;;-2.30;74.68;100246.53;5048375;28;20677;-81
2022/01/23 00:17:25;;;;;;;;;;;;;;;-2.21;73.96;100242.69;5041019;28;20298;-80
2022/01/23 00:19:52;;;;;;;;;;;;;;;-2.24;73.41;100249.41;5036605;28;19917;-80
2022/01/23 00:22:19;;;;;;;;;;;;;;;-2.17;73.48;100251.47;5041613;28;20363;-80
2022/01/23 00:30:31;;;;;;;;;;;;;;;-2.09;72.66;100267.31;5007131;28;20014;-80
2022/01/23 00:32:59;;;;;;;;;;;;;;;-2.28;72.50;100268.19;5026493;28;19963;-80
2022/01/23 00:35:24;;;;;;;;;;;;;;;-2.17;72.38;100272.13;5026624;28;20011;-80
2022/01/23 00:37:50;;;;;;;;;;;;;;;-2.26;73.16;100272.59;5027676;28;19947;-79
2022/01/23 00:40:15;;;;;;;;;;;;;;;-2.38;72.16;100274.59;5038388;28;19920;-81
2022/01/23 00:42:41;;;;;;;;;;;;;;;-2.46;73.06;100266.50;5047776;28;19935;-80
2022/01/23 00:45:26;;;;;;;;;;;;;;;-2.49;73.07;100268.94;5046415;28;19916;-80
2022/01/23 00:47:56;;;;;;;;;;;;;;;-2.53;73.33;100260.19;5045113;28;20371;-80
2022/01/23 00:50:21;;;;;;;;;;;;;;;-2.60;73.42;100258.09;5046966;28;19959;-80
2022/01/23 00:52:46;;;;;;;;;;;;;;;-2.42;72.29;100263.25;5047345;28;20688;-80
2022/01/23 00:55:12;;;;;;;;;;;;;;;-2.67;71.84;100261.25;5047087;28;19975;-80
2022/01/23 00:57:37;;;;;;;;;;;;;;;-2.59;71.99;100272.81;5037552;28;19913;-80
2022/01/23 01:00:06;;;;;;;;;;;;;;;-2.43;70.54;100274.41;5027287;28;19921;-80
2022/01/23 01:02:32;;;;;;;;;;;;;;;-2.45;70.11;100270.00;5046236;28;19916;-80
2022/01/23 01:04:58;;;;;;;;;;;;;;;-2.55;69.24;100271.25;5046350;28;19917;-81
2022/01/23 01:07:23;;;;;;;;;;;;;;;-2.50;69.09;100261.13;5038406;28;20008;-80
2022/01/23 01:09:51;;;;;;;;;;;;;;;-2.38;68.23;100269.44;5034879;28;19912;-80
2022/01/23 01:12:20;;;;;;;;;;;;;;;-2.53;68.15;100265.34;5046746;28;19912;-80
2022/01/23 01:36:02;;;;;;;;;;;;;;;-2.36;63.33;100286.81;5035515;28;19967;-81
2022/01/23 01:38:27;;;;;;;;;;;;;;;-2.39;63.38;100288.38;5041246;28;19917;-80
2022/01/23 01:40:53;;;;;;;;;;;;;;;-2.30;62.68;100298.22;5043763;28;20685;-81
2022/01/23 01:43:18;;;;;;;;;;;;;;;-2.36;62.23;100286.81;5046647;28;19935;-81
2022/01/23 01:45:44;;;;;;;;;;;;;;;-2.25;62.06;100294.16;5044310;28;19916;-81
2022/01/23 01:48:10;;;;;;;;;;;;;;;-2.25;61.89;100299.34;5033542;28;19917;-81
2022/01/23 01:50:42;;;;;;;;;;;;;;;-2.36;61.75;100288.50;5041899;28;20348;-82
2022/01/23 01:53:09;;;;;;;;;;;;;;;-2.14;62.20;100290.38;5026538;28;19916;-81
2022/01/23 01:55:41;;;;;;;;;;;;;;;-2.11;61.54;100287.06;5033943;28;19948;-81
2022/01/23 01:58:13;;;;;;;;;;;;;;;-2.30;61.13;100290.47;5033814;28;19917;-80
2022/01/23 02:00:52;;;;;;;;;;;;;;;-2.23;60.71;100297.69;5028911;28;19923;-80
2022/01/23 02:08:30;;;;;;;;;;;;;;;-2.07;60.68;100295.00;5045784;28;20418;-80
2022/01/23 02:11:06;;;;;;;;;;;;;;;-1.94;59.92;100295.56;5044484;28;19923;-80
2022/01/23 02:13:51;;;;;;;;;;;;;;;-2.10;60.40;100292.28;5045645;28;19936;-80
2022/01/23 02:17:00;;;;;;;;;;;;;;;-2.13;60.57;100294.72;5042789;28;19956;-81
2022/01/23 02:54:51;;;;;;;;;;;;;;;-2.23;58.73;100308.03;5026034;28;19924;-80
2022/01/23 02:57:22;;;;;;;;;;;;;;;-2.12;58.88;100309.41;5043040;28;20404;-80
2022/01/23 02:59:50;;;;;;;;;;;;;;;-2.12;58.56;100311.13;5048967;28;19912;-81
2022/01/23 03:02:51;;;;;;;;;;;;;;;-2.12;57.91;100316.28;5049132;28;19913;-81
2022/01/23 03:05:12;;;;;;;;;;;;;;;-2.01;57.68;100309.91;5046778;28;20409;-80
2022/01/23 03:10:32;;;;;;;;;;;;;;;-2.24;58.42;100312.34;5029249;28;20326;-80
2022/01/23 03:31:25;;;;;;;;;;;;;;;-2.30;58.54;100331.81;5028654;28;19948;-81
2022/01/23 03:33:51;;;;;;;;;;;;;;;-2.30;57.96;100322.38;5027499;28;20286;-81
2022/01/23 03:36:16;;;;;;;;;;;;;;;-2.35;57.92;100327.34;5036440;28;20077;-81
2022/01/23 03:38:42;;;;;;;;;;;;;;;-2.25;57.84;100322.59;5049203;28;19948;-81
2022/01/23 03:41:09;;;;;;;;;;;;;;;-2.05;57.51;100321.81;5047275;28;19917;-81
2022/01/23 03:43:37;;;;;;;;;;;;;;;-2.25;57.80;100320.91;5048089;28;20407;-82
2022/01/23 03:51:10;;;;;;;;;;;;;;;-2.27;57.54;100329.38;5047596;28;19912;-81
2022/01/23 03:53:35;;;;;;;;;;;;;;;-2.18;58.20;100334.97;5048419;28;19931;-81
2022/01/23 03:56:01;;;;;;;;;;;;;;;-2.39;57.98;100333.16;5039426;28;20303;-81
2022/01/23 03:58:26;;;;;;;;;;;;;;;-2.29;58.57;100334.47;5045042;28;19924;-81
2022/01/23 04:00:51;;;;;;;;;;;;;;;-2.43;57.90;100330.38;5047210;28;19916;-81
2022/01/23 04:03:19;;;;;;;;;;;;;;;-2.32;58.68;100330.88;5048148;28;19908;-81
2022/01/23 04:05:44;;;;;;;;;;;;;;;-2.44;58.81;100324.31;5041439;28;19920;-81
2022/01/23 04:08:09;;;;;;;;;;;;;;;-2.40;58.35;100322.75;5030330;28;19917;-80
2022/01/23 04:10:35;;;;;;;;;;;;;;;-2.34;58.52;100321.34;5028356;28;20003;-80
2022/01/23 04:13:25;;;;;;;;;;;;;;;-2.23;58.47;100327.00;5027211;28;19913;-80
2022/01/23 04:16:49;;;;;;;;;;;;;;;-2.10;57.35;100338.81;5027605;28;19913;-80
2022/01/23 04:32:20;;;;;;;;;;;;;;;-2.19;57.53;100347.03;5046501;28;19923;-80
2022/01/23 04:46:31;;;;;;;;;;;;;;;-2.67;59.45;100356.81;4979727;28;20350;-81
2022/01/23 04:59:30;;;;;;;;;;;;;;;-2.71;58.98;100362.63;5029741;28;19915;-80
2022/01/23 04:59:49;;;;;;;;;;;;;;;-2.00;58.45;100373.75;5035343;28;19931;-80
2022/01/23 05:04:44;;;;;;;;;;;;;;;-1.63;57.31;100383.19;5044525;28;19913;-81
2022/01/23 05:07:10;;;;;;;;;;;;;;;-1.74;56.96;100389.56;5025913;28;19966;-80
2022/01/23 05:09:36;;;;;;;;;;;;;;;-1.75;56.95;100390.38;5039710;28;19921;-80
2022/01/23 05:12:06;;;;;;;;;;;;;;;-1.95;57.66;100386.88;5044449;28;19916;-80
2022/01/23 05:14:43;;;;;;;;;;;;;;;-1.77;56.87;100398.06;5044538;28;19919;-80
2022/01/23 05:17:11;;;;;;;;;;;;;;;-1.78;57.00;100391.13;5046691;28;20463;-80
2022/01/23 05:19:37;;;;;;;;;;;;;;;-2.07;57.58;100394.94;5046084;28;20354;-80
2022/01/23 05:22:29;;;;;;;;;;;;;;;-2.03;58.51;100394.28;5046703;28;19919;-80
2022/01/23 05:24:57;;;;;;;;;;;;;;;-2.08;57.74;100400.94;5046816;28;19924;-81
2022/01/23 05:27:22;;;;;;;;;;;;;;;-2.07;57.59;100400.13;5046411;28;19913;-80
2022/01/23 05:29:48;;;;;;;;;;;;;;;-2.06;58.12;100395.00;5046948;28;19919;-80
2022/01/23 05:32:14;;;;;;;;;;;;;;;-1.99;57.87;100397.09;5046561;28;20400;-81
2022/01/23 05:34:40;;;;;;;;;;;;;;;-2.04;57.97;100405.44;5045537;28;19913;-80
2022/01/23 05:37:06;;;;;;;;;;;;;;;-2.08;58.25;100400.94;5047040;28;20408;-80
2022/01/23 05:39:33;;;;;;;;;;;;;;;-2.24;58.96;100405.38;5046244;28;19913;-80
2022/01/23 05:42:05;;;;;;;;;;;;;;;-2.07;58.11;100402.69;5045558;28;19917;-80
2022/01/23 05:44:30;;;;;;;;;;;;;;;-2.26;59.32;100404.41;5046294;28;19915;-80
2022/01/23 05:46:56;;;;;;;;;;;;;;;-2.10;59.36;100402.56;5010394;28;19929;-80
2022/01/23 05:49:22;;;;;;;;;;;;;;;-2.05;58.92;100401.97;5006232;28;19921;-81
2022/01/23 05:51:47;;;;;;;;;;;;;;;-2.16;58.66;100398.00;5007148;28;19920;-80
2022/01/23 05:54:12;;;;;;;;;;;;;;;-2.26;59.58;100411.28;5024525;28;19913;-80
2022/01/23 05:56:37;;;;;;;;;;;;;;;-2.06;59.16;100407.94;5026542;28;19913;-80
2022/01/23 05:59:03;;;;;;;;;;;;;;;-2.06;58.31;100410.53;5025807;28;19916;-80
2022/01/23 06:01:28;;;;;;;;;;;;;;;-2.06;58.12;100415.69;5026190;28;19948;-80
2022/01/23 06:03:53;;;;;;;;;;;;;;;-1.96;57.47;100419.63;5026241;28;20434;-80
2022/01/23 06:06:19;;;;;;;;;;;;;;;-1.82;57.38;100417.69;5025952;28;20005;-80
2022/01/23 06:08:44;;;;;;;;;;;;;;;-1.68;57.73;100421.78;5026110;28;19951;-80
2022/01/23 06:11:10;;;;;;;;;;;;;;;-1.38;56.88;100425.69;5013027;28;19960;-81
2022/01/23 06:13:35;;;;;;;;;;;;;;;-1.52;56.93;100431.13;5013594;28;19995;-82
2022/01/23 06:16:01;;;;;;;;;;;;;;;-1.62;56.95;100429.81;5024587;28;19913;-79
2022/01/23 06:18:26;;;;;;;;;;;;;;;-1.45;56.85;100433.19;5025366;28;19913;-80
2022/01/23 06:20:51;;;;;;;;;;;;;;;-1.37;57.63;100443.88;5022833;28;19971;-81
2022/01/23 06:23:17;;;;;;;;;;;;;;;-1.24;57.12;100444.44;5024855;28;19940;-81
2022/01/23 06:25:44;;;;;;;;;;;;;;;-1.15;56.67;100447.41;5025037;28;19917;-80
2022/01/23 06:28:10;;;;;;;;;;;;;;;-1.21;56.61;100449.75;5024851;28;19952;-81
2022/01/23 06:30:36;;;;;;;;;;;;;;;-1.14;57.33;100441.44;5045679;28;20015;-80
2022/01/23 06:33:03;;;;;;;;;;;;;;;-1.10;56.79;100441.63;5019607;28;20011;-82
2022/01/23 06:35:29;;;;;;;;;;;;;;;-0.91;56.64;100447.63;5028847;28;20877;-81
2022/01/23 06:37:54;;;;;;;;;;;;;;;-0.91;56.03;100440.72;5027369;28;20011;-80
2022/01/23 06:40:19;;;;;;;;;;;;;;;-0.90;55.51;100436.41;5026365;28;19948;-80
2022/01/23 06:42:45;;;;;;;;;;;;;;;-0.99;55.53;100444.69;5027743;28;20382;-83
2022/01/23 06:45:11;;;;;;;;;;;;;;;-1.10;54.79;100414.84;5018796;28;19913;-81
2022/01/23 06:47:36;;;;;;;;;;;;;;;-1.01;54.44;100435.94;5028226;28;19920;-81
2022/01/23 06:50:02;;;;;;;;;;;;;;;-1.03;54.70;100445.38;5024708;28;19956;-81
2022/01/23 06:52:28;;;;;;;;;;;;;;;-0.87;54.94;100441.72;5029160;28;19955;-81
2022/01/23 06:54:53;;;;;;;;;;;;;;;-0.85;54.76;100446.97;5029202;28;19953;-81
2022/01/23 06:57:18;;;;;;;;;;;;;;;-0.82;54.56;100437.66;5026963;28;20732;-82
2022/01/23 06:59:44;;;;;;;;;;;;;;;-0.63;53.99;100444.50;5025447;28;19932;-82
2022/01/23 07:02:09;;;;;;;;;;;;;;;-0.72;53.90;100434.59;5027161;28;19921;-81
2022/01/23 07:04:35;;;;;;;;;;;;;;;-0.60;53.92;100433.38;5028221;28;19917;-80
2022/01/23 07:07:00;;;;;;;;;;;;;;;-0.54;53.52;100438.81;5027705;28;20016;-82
2022/01/23 07:09:26;;;;;;;;;;;;;;;-0.52;53.86;100437.16;5026351;28;19999;-81
2022/01/23 07:11:51;;;;;;;;;;;;;;;-0.47;53.43;100429.56;5026344;28;20714;-80
2022/01/23 07:14:16;;;;;;;;;;;;;;;-0.60;51.85;100435.97;5028065;28;19913;-80
2022/01/23 07:16:41;;;;;;;;;;;;;;;-0.64;52.63;100452.19;5027438;28;20503;-81
2022/01/23 07:19:07;;;;;;;;;;;;;;;-0.69;53.04;100451.13;5028648;28;19913;-80
2022/01/23 07:21:32;;;;;;;;;;;;;;;-0.49;53.99;100449.38;5024430;28;20288;-81
2022/01/23 07:23:58;;;;;;;;;;;;;;;-0.60;52.43;100464.47;5024978;28;19936;-81
2022/01/23 07:26:26;;;;;;;;;;;;;;;-0.64;53.55;100463.44;5013739;28;19920;-80
2022/01/23 07:28:54;;;;;;;;;;;;;;;-0.79;53.50;100466.28;5027266;28;19979;-80
2022/01/23 07:31:42;;;;;;;;;;;;;;;-0.86;52.72;100463.34;5025284;28;20338;-81
2022/01/23 07:34:06;;;;;;;;;;;;;;;-0.89;53.14;100469.28;5023891;28;19921;-81
2022/01/23 07:36:32;;;;;;;;;;;;;;;-0.77;53.35;100468.94;5013868;28;19920;-81
2022/01/23 07:38:57;;;;;;;;;;;;;;;-0.68;53.47;100463.25;5022020;28;20356;-81
2022/01/23 07:41:23;;;;;;;;;;;;;;;-0.70;53.67;100472.66;5024569;28;19913;-81
2022/01/23 07:43:48;;;;;;;;;;;;;;;-0.78;54.94;100467.16;5026990;28;19966;-81
2022/01/23 07:46:14;;;;;;;;;;;;;;;-0.89;54.34;100466.69;5024029;28;19924;-81
2022/01/23 07:48:39;;;;;;;;;;;;;;;-0.85;54.40;100465.09;5009616;28;19964;-81
2022/01/23 07:51:04;;;;;;;;;;;;;;;-0.92;54.88;100464.84;5022544;28;20375;-81
2022/01/23 07:53:30;;;;;;;;;;;;;;;-0.79;54.74;100471.47;5020393;28;19939;-80
2022/01/23 07:55:55;;;;;;;;;;;;;;;-0.69;53.97;100459.78;5021024;28;20008;-81
2022/01/23 07:58:20;;;;;;;;;;;;;;;-0.54;53.70;100469.91;5019981;28;19918;-82
2022/01/23 08:00:47;;;;;;;;;;;;;;;-0.64;53.37;100462.56;5024077;28;19939;-82
2022/01/23 08:03:13;;;;;;;;;;;;;;;-0.43;53.72;100460.00;5027683;28;20004;-82
2022/01/23 08:05:38;;;;;;;;;;;;;;;-0.41;52.62;100451.44;5027499;28;20008;-82
2022/01/23 08:08:03;;;;;;;;;;;;;;;-0.51;53.88;100458.78;5026935;28;19963;-84
2022/01/23 08:10:29;;;;;;;;;;;;;;;-0.28;52.66;100444.16;5024906;28;19917;-81
2022/01/23 08:12:54;;;;;;;;;;;;;;;-0.44;52.37;100448.72;5027265;28;19913;-82
2022/01/23 08:15:20;;;;;;;;;;;;;;;-0.36;52.88;100443.84;5024917;28;21300;-80
2022/01/23 08:17:45;;;;;;;;;;;;;;;-0.37;52.66;100444.69;5027852;28;19920;-81
2022/01/23 08:20:10;;;;;;;;;;;;;;;-0.58;52.93;100449.88;5022510;28;19921;-87
2022/01/23 08:22:36;;;;;;;;;;;;;;;-0.48;52.45;100445.94;5021243;28;19917;-83
2022/01/23 08:25:02;;;;;;;;;;;;;;;-0.40;52.43;100444.56;5028031;28;19913;-83
2022/01/23 08:27:28;;;;;;;;;;;;;;;-0.50;51.71;100445.88;5027652;28;19913;-82
2022/01/23 08:29:53;;;;;;;;;;;;;;;-0.37;52.03;100445.56;5027187;28;19971;-82
2022/01/23 08:32:19;;;;;;;;;;;;;;;-0.47;50.57;100442.53;5028002;28;19975;-85
2022/01/23 08:34:44;;;;;;;;;;;;;;;-0.44;50.21;100438.34;5027602;28;19924;-82
2022/01/23 08:37:10;;;;;;;;;;;;;;;-0.33;50.52;100435.31;5026726;28;19923;-80
2022/01/23 08:39:36;;;;;;;;;;;;;;;-0.25;50.21;100441.69;5023393;28;19917;-81
2022/01/23 08:42:03;;;;;;;;;;;;;;;-0.15;48.97;100430.00;5027518;28;19908;-84
2022/01/23 08:44:29;;;;;;;;;;;;;;;-0.05;49.12;100435.63;5027268;28;19913;-80
2022/01/23 08:46:54;;;;;;;;;;;;;;;0.21;49.58;100440.06;5027331;28;19987;-81
2022/01/23 08:49:20;;;;;;;;;;;;;;;0.28;48.99;100436.84;5027665;28;20026;-82
2022/01/23 08:51:47;;;;;;;;;;;;;;;0.16;48.01;100440.75;5027404;28;19909;-82
2022/01/23 08:54:12;;;;;;;;;;;;;;;0.29;47.74;100431.72;5027153;28;19964;-82
2022/01/23 08:56:38;;;;;;;;;;;;;;;0.38;48.28;100444.16;5025404;28;20375;-82
2022/01/23 08:59:04;;;;;;;;;;;;;;;0.38;47.42;100441.56;5026811;28;19925;-81
2022/01/23 09:01:29;;;;;;;;;;;;;;;0.41;47.37;100436.50;5026702;28;19917;-82
2022/01/23 09:03:55;;;;;;;;;;;;;;;0.53;48.32;100433.50;5026085;28;20673;-81
2022/01/23 09:06:20;;;;;;;;;;;;;;;0.68;47.63;100434.06;5026426;28;19924;-81
2022/01/23 09:08:46;;;;;;;;;;;;;;;0.50;47.41;100426.47;5026582;28;20276;-81
2022/01/23 09:11:55;;;;;;;;;;;;;;;0.58;46.81;100428.47;5026128;28;19913;-81
2022/01/23 09:14:10;;;;;;;;;;;;;;;0.55;46.94;100431.81;5024533;28;19995;-81
2022/01/23 09:16:42;;;;;;;;;;;;;;;0.53;47.03;100426.56;5024480;28;19909;-84
2022/01/23 09:19:08;;;;;;;;;;;;;;;0.56;46.61;100412.81;5025201;28;19924;-81
2022/01/23 09:21:34;;;;;;;;;;;;;;;0.68;47.40;100402.88;5026447;28;20330;-80
2022/01/23 09:24:00;;;;;;;;;;;;;;;0.89;46.31;100401.88;5023494;28;19966;-84
2022/01/23 09:26:26;;;;;;;;;;;;;;;0.87;45.75;100390.56;5016088;28;20370;-80
2022/01/23 09:28:54;;;;;;;;;;;;;;;0.97;45.89;100387.44;5022432;28;20443;-84
2022/01/23 09:31:45;;;;;;;;;;;;;;;0.89;45.66;100353.41;5022050;28;20384;-81
2022/01/23 09:34:10;;;;;;;;;;;;;;;0.64;46.73;100381.94;5013419;28;19917;-83
2022/01/23 09:36:36;;;;;;;;;;;;;;;0.86;46.34;100376.66;5026043;28;19913;-83
2022/01/23 09:39:02;;;;;;;;;;;;;;;1.11;46.44;100369.72;5018704;28;19917;-83
2022/01/23 09:41:28;;;;;;;;;;;;;;;0.92;45.68;100378.59;5026850;28;20007;-80
2022/01/23 09:43:54;;;;;;;;;;;;;;;0.83;45.10;100370.50;5024811;28;19913;-82
2022/01/23 09:46:20;;;;;;;;;;;;;;;0.79;45.60;100382.50;5021337;28;19917;-83
2022/01/23 09:48:48;;;;;;;;;;;;;;;0.70;45.01;100369.19;5025059;28;19991;-80
2022/01/23 09:51:13;;;;;;;;;;;;;;;0.72;44.75;100377.91;5026013;28;19971;-83
2022/01/23 09:53:40;;;;;;;;;;;;;;;0.75;44.83;100370.22;5026556;28;19909;-83
2022/01/23 09:56:08;;;;;;;;;;;;;;;0.67;43.68;100358.69;5025604;28;20367;-80
2022/01/23 09:58:37;;;;;;;;;;;;;;;0.76;44.21;100361.63;5014941;28;19921;-82
2022/01/23 10:01:02;;;;;;;;;;;;;;;0.86;44.39;100360.22;5005195;28;19909;-79
2022/01/23 10:03:28;;;;;;;;;;;;;;;0.97;45.29;100345.00;5014748;28;20533;-80
2022/01/23 10:05:55;;;;;;;;;;;;;;;1.02;43.82;100348.63;5022965;28;20330;-79
2022/01/23 10:08:21;;;;;;;;;;;;;;;0.92;43.76;100330.97;5018535;28;19975;-82
2022/01/23 10:10:51;;;;;;;;;;;;;;;0.77;43.22;100329.59;5008601;28;20383;-83
2022/01/23 10:13:19;;;;;;;;;;;;;;;0.82;43.05;100333.25;5024923;28;20520;-82
2022/01/23 10:15:45;;;;;;;;;;;;;;;0.96;43.10;100331.13;5024203;28;19960;-81
2022/01/23 10:18:10;;;;;;;;;;;;;;;1.07;42.31;100324.56;5024824;28;20074;-82
2022/01/23 10:20:35;;;;;;;;;;;;;;;1.17;42.32;100338.75;5025702;28;20337;-81
2022/01/23 10:23:00;;;;;;;;;;;;;;;1.09;42.00;100335.00;5026239;28;19920;-81
2022/01/23 10:25:28;;;;;;;;;;;;;;;1.00;41.05;100330.38;5026609;28;19916;-82
2022/01/23 10:28:03;;;;;;;;;;;;;;;1.13;41.61;100321.31;5025893;28;19913;-82
2022/01/23 10:30:32;;;;;;;;;;;;;;;1.16;40.84;100312.69;5025309;28;20003;-82
2022/01/23 10:33:10;;;;;;;;;;;;;;;0.99;41.71;100317.34;5026469;28;19913;-83
2022/01/23 10:35:54;;;;;;;;;;;;;;;1.20;42.76;100305.06;5026050;28;19913;-82
2022/01/23 10:38:20;;;;;;;;;;;;;;;1.20;41.85;100310.25;5025320;28;19920;-80
2022/01/23 10:40:54;;;;;;;;;;;;;;;1.07;42.01;100303.78;5026064;28;20295;-80
2022/01/23 10:48:36;;;;;;;;;;;;;;;1.34;41.17;100317.63;5025549;28;20374;-82
2022/01/23 10:51:16;;;;;;;;;;;;;;;1.31;40.65;100320.13;5025306;28;20018;-81
2022/01/23 10:54:00;;;;;;;;;;;;;;;1.35;40.89;100314.19;5025429;28;19920;-80
2022/01/23 10:56:27;;;;;;;;;;;;;;;1.44;40.75;100311.91;5026186;28;19924;-79
2022/01/23 10:58:56;;;;;;;;;;;;;;;1.32;40.39;100311.50;5025823;28;19909;-81
2022/01/23 11:01:22;;;;;;;;;;;;;;;0.95;40.70;100298.19;5025430;28;20003;-80
2022/01/23 11:04:02;;;;;;;;;;;;;;;1.19;41.00;100297.22;5026066;28;20003;-80
2022/01/23 11:06:27;;;;;;;;;;;;;;;1.33;40.46;100288.16;5025981;28;20400;-79
2022/01/23 11:09:05;;;;;;;;;;;;;;;1.15;41.85;100290.16;5022890;28;19925;-81
2022/01/23 11:11:39;;;;;;;;;;;;;;;0.98;41.69;100281.81;5023591;28;19952;-80
2022/01/23 11:19:43;;;;;;;;;;;;;;;1.08;41.83;100291.66;5018577;28;20083;-81
2022/01/23 11:22:19;;;;;;;;;;;;;;;0.98;41.39;100284.41;5017437;28;19966;-83
2022/01/23 11:24:47;;;;;;;;;;;;;;;1.17;42.84;100272.91;5028940;28;19917;-83
2022/01/23 11:27:13;;;;;;;;;;;;;;;1.24;42.16;100278.34;5028079;28;19933;-83
2022/01/23 11:29:57;;;;;;;;;;;;;;;1.33;41.85;100275.16;5026526;28;19917;-82
2022/01/23 11:32:25;;;;;;;;;;;;;;;1.27;41.68;100261.97;5027481;28;20256;-82
2022/01/23 11:34:53;;;;;;;;;;;;;;;1.29;40.95;100264.63;5028471;28;19921;-83
2022/01/23 11:37:19;;;;;;;;;;;;;;;1.14;41.87;100247.69;5027954;28;19913;-84
2022/01/23 11:39:53;;;;;;;;;;;;;;;1.33;41.09;100272.56;5049203;28;19952;-82
2022/01/23 11:50:43;;;;;;;;;;;;;;;1.39;41.80;100272.75;5028800;28;19968;-82
2022/01/23 11:56:23;;;;;;;;;;;;;;;0.88;41.05;100265.94;5028131;28;19925;-82
2022/01/23 11:58:50;;;;;;;;;;;;;;;0.91;41.48;100269.44;5025793;28;19919;-82
2022/01/23 12:01:20;;;;;;;;;;;;;;;1.11;40.81;100280.50;5027831;28;19909;-82
2022/01/23 12:04:04;;;;;;;;;;;;;;;0.88;41.81;100278.91;5027197;28;19913;-82
2022/01/23 12:06:29;;;;;;;;;;;;;;;1.13;41.55;100278.81;5026507;28;19999;-81
2022/01/23 12:09:18;;;;;;;;;;;;;;;1.15;41.35;100287.56;5014603;28;20037;-83
2022/01/23 12:18:10;;;;;;;;;;;;;;;0.73;42.26;100281.00;5022978;28;19924;-81
2022/01/23 12:20:36;;;;;;;;;;;;;;;0.74;42.84;100287.06;5027870;28;19909;-81
2022/01/23 12:23:02;;;;;;;;;;;;;;;0.95;43.13;100290.38;5023152;28;19916;-80
2022/01/23 12:25:28;;;;;;;;;;;;;;;0.80;42.19;100284.66;5027869;28;20370;-81
2022/01/23 12:28:12;;;;;;;;;;;;;;;0.71;42.03;100282.63;5027530;28;19909;-84
2022/01/23 12:30:38;;;;;;;;;;;;;;;0.67;42.31;100292.03;5026989;28;20809;-82
2022/01/23 12:33:09;;;;;;;;;;;;;;;0.71;43.19;100286.13;5027774;28;19920;-81
2022/01/23 12:35:42;;;;;;;;;;;;;;;0.70;42.91;100291.28;5026603;28;19967;-82
2022/01/23 12:38:10;;;;;;;;;;;;;;;0.74;42.64;100300.03;5022364;28;20011;-82
2022/01/23 12:40:37;;;;;;;;;;;;;;;0.88;42.73;100291.00;5026382;28;19974;-83
2022/01/23 12:43:07;;;;;;;;;;;;;;;0.84;43.53;100286.56;5026772;28;19944;-84
2022/01/23 12:45:41;;;;;;;;;;;;;;;0.95;43.36;100281.72;5026287;28;20028;-84
2022/01/23 12:48:25;;;;;;;;;;;;;;;1.01;43.50;100295.78;5019384;28;19963;-81
2022/01/23 12:50:51;;;;;;;;;;;;;;;1.09;43.35;100284.78;5025644;28;19913;-82
2022/01/23 12:53:16;;;;;;;;;;;;;;;1.22;43.53;100285.22;5027089;28;19916;-83
2022/01/23 12:56:05;;;;;;;;;;;;;;;0.99;42.46;100278.38;5027353;28;19917;-81
2022/01/23 12:58:33;;;;;;;;;;;;;;;0.91;42.39;100291.09;5027088;28;19917;-82
2022/01/23 13:00:59;;;;;;;;;;;;;;;0.95;42.88;100282.59;5026929;28;19913;-81
2022/01/23 13:03:25;;;;;;;;;;;;;;;1.04;42.45;100297.59;5026331;28;19921;-83
2022/01/23 13:05:51;;;;;;;;;;;;;;;0.96;42.88;100284.38;5026995;28;19956;-82
2022/01/23 13:08:24;;;;;;;;;;;;;;;1.15;42.46;100288.44;5027020;28;19956;-83
2022/01/23 13:11:21;;;;;;;;;;;;;;;0.95;43.17;100287.78;5027043;28;20349;-82
2022/01/23 13:13:50;;;;;;;;;;;;;;;0.86;43.33;100288.34;5022699;28;19924;-84
2022/01/23 13:19:15;;;;;;;;;;;;;;;0.90;43.63;100297.16;5023811;28;19917;-83
2022/01/23 13:27:48;;;;;;;;;;;;;;;1.09;43.63;100301.22;5021892;28;20004;-82
2022/01/23 13:30:15;;;;;;;;;;;;;;;1.02;44.59;100307.03;5024486;28;19917;-82
2022/01/23 13:32:45;;;;;;;;;;;;;;;1.05;43.90;100310.66;5024690;28;20299;-83
2022/01/23 13:35:14;;;;;;;;;;;;;;;0.87;44.28;100308.31;5026852;28;19908;-82
2022/01/23 13:37:40;;;;;;;;;;;;;;;0.83;44.55;100303.81;5025438;28;19921;-83
2022/01/23 13:40:07;;;;;;;;;;;;;;;0.91;44.90;100308.41;5024022;28;19997;-83
2022/01/23 13:47:50;;;;;;;;;;;;;;;0.84;44.76;100302.13;5027102;28;19913;-83
2022/01/23 13:59:30;;;;;;;;;;;;;;;0.88;45.49;100312.69;5006721;28;19944;-83
2022/01/23 14:04:27;;;;;;;;;;;;;;;0.93;45.28;100305.03;5026159;28;19917;-84
2022/01/23 14:06:53;;;;;;;;;;;;;;;0.76;45.53;100301.88;5026167;28;19916;-85
2022/01/23 14:09:20;;;;;;;;;;;;;;;0.78;45.42;100308.00;5024620;28;19909;-85
2022/01/23 14:11:46;;;;;;;;;;;;;;;0.90;45.58;100307.53;5026219;28;19913;-85
2022/01/23 14:14:11;;;;;;;;;;;;;;;0.81;45.26;100304.63;5025952;28;20367;-86
2022/01/23 14:16:36;;;;;;;;;;;;;;;0.69;45.65;100300.75;5025439;28;19932;-85
2022/01/23 14:19:20;;;;;;;;;;;;;;;0.85;45.77;100309.06;5024609;28;19909;-84
2022/01/23 14:21:47;;;;;;;;;;;;;;;0.88;45.81;100304.88;5026013;28;19917;-85
2022/01/23 14:24:19;;;;;;;;;;;;;;;1.04;44.97;100313.19;5026421;28;20011;-87
2022/01/23 14:26:54;;;;;;;;;;;;;;;0.83;45.33;100310.75;5024994;28;20296;-86
2022/01/23 14:29:22;;;;;;;;;;;;;;;0.97;45.63;100312.09;5020792;28;20269;-86
2022/01/23 14:32:02;;;;;;;;;;;;;;;0.82;45.22;100315.06;5020590;28;19952;-86
2022/01/23 14:34:27;;;;;;;;;;;;;;;0.93;45.08;100318.03;5026459;28;20350;-84
2022/01/23 14:36:58;;;;;;;;;;;;;;;0.69;45.56;100324.13;5024265;28;19920;-86
2022/01/23 14:39:24;;;;;;;;;;;;;;;0.66;45.40;100330.94;5022523;28;19917;-84
2022/01/23 14:41:49;;;;;;;;;;;;;;;0.82;45.27;100334.94;5025349;28;20656;-83
2022/01/23 14:44:15;;;;;;;;;;;;;;;0.59;44.26;100336.75;5024310;28;21389;-84
2022/01/23 14:46:40;;;;;;;;;;;;;;;0.56;44.48;100337.53;5025152;28;20282;-83
2022/01/23 14:49:10;;;;;;;;;;;;;;;0.68;44.73;100339.66;5022559;28;19917;-84
2022/01/23 14:51:37;;;;;;;;;;;;;;;0.84;44.38;100333.31;5025083;28;19920;-83
2022/01/23 14:54:02;;;;;;;;;;;;;;;0.65;44.57;100334.34;5027485;28;20332;-84
2022/01/23 14:56:29;;;;;;;;;;;;;;;0.69;44.75;100333.66;5027900;28;19919;-84
2022/01/23 14:58:55;;;;;;;;;;;;;;;0.57;45.36;100338.41;5027740;28;19974;-82
2022/01/23 15:01:20;;;;;;;;;;;;;;;0.91;45.60;100332.66;5028500;28;19909;-83
2022/01/23 15:03:52;;;;;;;;;;;;;;;0.94;45.10;100337.09;5027649;28;19913;-83
2022/01/23 15:06:18;;;;;;;;;;;;;;;0.63;46.10;100349.00;5028045;28;19917;-83
2022/01/23 15:08:45;;;;;;;;;;;;;;;0.53;46.45;100351.28;5028135;28;19924;-83
2022/01/23 15:11:10;;;;;;;;;;;;;;;0.39;46.65;100347.31;5028874;28;20715;-83
2022/01/23 15:13:36;;;;;;;;;;;;;;;0.42;46.96;100356.91;5028220;28;19974;-85
2022/01/23 15:16:02;;;;;;;;;;;;;;;0.38;46.45;100360.22;5029509;28;19948;-85
2022/01/23 15:18:27;;;;;;;;;;;;;;;0.51;46.48;100349.44;5027632;28;20064;-84
2022/01/23 15:20:53;;;;;;;;;;;;;;;0.38;47.63;100353.31;5028830;28;19940;-85
2022/01/23 15:23:18;;;;;;;;;;;;;;;0.41;46.62;100361.22;5028946;28;19913;-85
2022/01/23 15:25:45;;;;;;;;;;;;;;;0.30;47.11;100370.34;5027808;28;20696;-86
2022/01/23 15:28:11;;;;;;;;;;;;;;;0.43;46.99;100366.47;5027388;28;19913;-84
2022/01/23 15:30:37;;;;;;;;;;;;;;;0.49;46.99;100369.28;5028393;28;19967;-84
2022/01/23 15:33:03;;;;;;;;;;;;;;;0.47;47.58;100370.94;5029225;28;19967;-85
2022/01/23 15:35:29;;;;;;;;;;;;;;;0.20;47.28;100384.66;5028332;28;20016;-86
2022/01/23 15:37:55;;;;;;;;;;;;;;;0.18;48.04;100394.97;5027097;28;19967;-85
2022/01/23 15:40:20;;;;;;;;;;;;;;;0.30;47.94;100401.47;5028036;28;19917;-84
2022/01/23 15:42:49;;;;;;;;;;;;;;;0.45;48.07;100399.44;5028473;28;19913;-86
2022/01/23 15:45:14;;;;;;;;;;;;;;;0.14;48.28;100398.28;5028805;28;19920;-85
2022/01/23 15:47:40;;;;;;;;;;;;;;;0.20;48.22;100409.72;5027577;28;19940;-84
2022/01/23 15:50:06;;;;;;;;;;;;;;;0.29;48.54;100415.28;5028458;28;19948;-84
2022/01/23 15:52:32;;;;;;;;;;;;;;;0.14;48.91;100410.38;5018046;28;19918;-84
2022/01/23 15:54:57;;;;;;;;;;;;;;;-0.04;50.84;100414.03;5020878;28;19967;-86